createdAt,value
2023-04-19T00:02:29.172Z,20.90
2023-04-19T00:05:32.986Z,22.00
2023-04-19T00:08:36.091Z,21.90
2023-04-19T00:11:40.557Z,21.40
2023-04-19T00:14:43.605Z,19.83
2023-04-19T00:17:46.720Z,21.00
2023-04-19T00:20:49.938Z,19.10
2023-04-19T00:23:54.205Z,19.77
2023-04-19T00:26:59.094Z,19.43
2023-04-19T00:30:02.915Z,19.60
2023-04-19T00:33:06.070Z,19.97
2023-04-19T00:36:10.731Z,19.70
2023-04-19T00:39:13.968Z,19.23
2023-04-19T00:42:18.434Z,19.87
2023-04-19T00:45:21.609Z,19.67
2023-04-19T00:48:25.337Z,19.67
2023-04-19T00:51:28.496Z,18.30
2023-04-19T00:54:31.826Z,18.23
2023-04-19T00:57:38.367Z,18.87
2023-04-19T01:00:41.594Z,18.03
2023-04-19T01:03:44.945Z,17.87
2023-04-19T01:06:48.256Z,18.70
2023-04-19T01:09:52.410Z,17.57
2023-04-19T01:12:56.830Z,18.23
2023-04-19T01:16:00.084Z,19.10
2023-04-19T01:19:03.267Z,17.80
2023-04-19T01:22:06.635Z,17.70
2023-04-19T01:25:11.689Z,16.63
2023-04-19T01:28:14.941Z,17.83
2023-04-19T01:31:18.110Z,16.90
2023-04-19T01:34:23.257Z,16.70
2023-04-19T01:37:26.470Z,16.70
2023-04-19T01:40:31.000Z,16.20
2023-04-19T01:43:34.064Z,16.37
2023-04-19T01:46:38.944Z,16.60
2023-04-19T01:49:42.100Z,15.57
2023-04-19T01:52:45.226Z,15.37
2023-04-19T01:55:49.653Z,17.30
2023-04-19T01:58:52.764Z,15.13
2023-04-19T02:01:55.885Z,15.70
2023-04-19T02:04:59.179Z,15.40
2023-04-19T02:08:02.805Z,14.93
2023-04-19T02:11:10.058Z,14.80
2023-04-19T02:14:13.432Z,14.53
2023-04-19T02:17:16.928Z,13.60
2023-04-19T02:20:20.173Z,14.00
2023-04-19T02:23:23.326Z,13.90
2023-04-19T02:26:27.857Z,13.40
2023-04-19T02:29:31.142Z,14.27
2023-04-19T02:32:34.227Z,13.40
2023-04-19T02:35:37.562Z,13.40
2023-04-19T02:38:40.825Z,12.53
2023-04-19T02:41:45.316Z,11.17
2023-04-19T02:44:48.354Z,11.47
2023-04-19T02:47:51.543Z,10.87
2023-04-19T02:50:54.581Z,11.20
2023-04-19T02:53:57.720Z,10.77
2023-04-19T02:57:02.189Z,11.30
2023-04-19T03:00:06.582Z,10.90
2023-04-19T03:03:09.862Z,10.60
2023-04-19T03:06:13.133Z,9.40
2023-04-19T03:09:16.221Z,6.47
2023-04-19T03:12:20.630Z,5.40
2023-04-19T03:15:23.614Z,5.30
2023-04-19T03:18:26.747Z,6.50
2023-04-19T03:21:29.806Z,4.93
2023-04-19T03:24:33.979Z,3.53
2023-04-19T03:27:39.462Z,3.80
2023-04-19T03:30:42.668Z,3.37
2023-04-19T03:33:45.680Z,3.20
2023-04-19T03:36:48.736Z,3.47
2023-04-19T03:39:51.779Z,3.50
2023-04-19T03:42:56.236Z,2.87
2023-04-19T03:45:59.272Z,2.90
2023-04-19T03:49:02.264Z,3.30
2023-04-19T03:52:05.696Z,2.83
2023-04-19T03:55:10.172Z,2.70
2023-04-19T03:58:14.678Z,2.90
2023-04-19T04:01:21.411Z,2.80
2023-04-19T04:04:24.727Z,2.80
2023-04-19T04:07:28.019Z,2.90
2023-04-19T04:10:31.114Z,2.90
2023-04-19T04:13:35.583Z,2.93
2023-04-19T04:16:38.638Z,2.93
2023-04-19T04:19:41.680Z,2.37
2023-04-19T04:22:46.185Z,2.80
2023-04-19T04:25:49.307Z,2.77
2023-04-19T04:28:53.881Z,2.40
2023-04-19T04:31:57.722Z,3.33
2023-04-19T04:35:00.835Z,2.40
2023-04-19T04:38:17.512Z,2.20
2023-04-19T04:41:22.749Z,2.60
2023-04-19T04:47:33.442Z,2.33
2023-04-19T04:50:36.648Z,2.23
2023-04-19T04:53:40.693Z,2.70
2023-04-19T04:56:44.042Z,1.97
2023-04-19T04:59:48.551Z,2.50
2023-04-19T05:02:51.671Z,2.33
2023-04-19T05:05:54.811Z,2.20
2023-04-19T05:08:58.017Z,2.33
2023-04-19T05:12:01.922Z,2.40
2023-04-19T05:15:07.721Z,2.10
2023-04-19T05:18:10.858Z,3.20
2023-04-19T05:21:13.956Z,2.50
2023-04-19T05:24:17.847Z,2.73
2023-04-19T05:27:21.084Z,3.17
2023-04-19T05:30:26.117Z,2.97
2023-04-19T05:33:29.506Z,3.63
2023-04-19T05:36:32.904Z,3.17
2023-04-19T05:39:36.108Z,3.93
2023-04-19T05:42:39.855Z,3.60
2023-04-19T05:45:44.362Z,4.07
2023-04-19T05:48:47.584Z,3.50
2023-04-19T05:51:50.687Z,3.80
2023-04-19T05:54:53.804Z,4.30
2023-04-19T05:57:56.942Z,4.27
2023-04-19T06:01:02.053Z,4.50
2023-04-19T06:04:05.754Z,4.13
2023-04-19T06:07:21.689Z,4.70
2023-04-19T06:10:44.507Z,4.23
2023-04-19T06:13:55.161Z,4.40
2023-04-19T06:16:59.544Z,4.63
2023-04-19T06:20:02.546Z,4.53
2023-04-19T06:23:05.812Z,4.60
2023-04-19T06:26:08.842Z,4.37
2023-04-19T06:29:11.874Z,4.40
2023-04-19T06:32:16.303Z,4.40
2023-04-19T06:35:19.769Z,4.63
2023-04-19T06:38:22.775Z,4.03
2023-04-19T06:41:26.097Z,4.40
2023-04-19T06:44:29.226Z,4.30
2023-04-19T06:47:35.401Z,4.43
2023-04-19T06:50:38.780Z,3.93
2023-04-19T06:53:41.830Z,4.80
2023-04-19T06:56:46.952Z,5.30
2023-04-19T06:59:50.040Z,5.00
2023-04-19T07:02:54.691Z,5.83
2023-04-19T07:05:57.817Z,6.10
2023-04-19T07:09:00.802Z,6.00
2023-04-19T07:12:03.906Z,6.17
2023-04-19T07:15:07.696Z,6.67
2023-04-19T07:18:15.024Z,8.27
2023-04-19T07:21:18.063Z,9.47
2023-04-19T07:24:22.109Z,10.17
2023-04-19T07:27:25.171Z,11.10
2023-04-19T07:30:28.197Z,12.90
2023-04-19T07:33:32.766Z,12.57
2023-04-19T07:36:37.134Z,14.63
2023-04-19T07:39:40.450Z,13.27
2023-04-19T07:42:44.522Z,13.60
2023-04-19T07:45:47.742Z,16.20
2023-04-19T07:48:52.215Z,16.00
2023-04-19T07:51:55.301Z,17.03
2023-04-19T07:54:58.340Z,16.90
2023-04-19T07:58:02.262Z,17.00
2023-04-19T08:01:05.385Z,20.77
2023-04-19T08:04:10.288Z,20.43
2023-04-19T08:07:13.606Z,21.80
2023-04-19T08:10:16.945Z,20.80
2023-04-19T08:13:20.003Z,20.13
2023-04-19T08:17:01.468Z,19.37
2023-04-19T08:19:47.660Z,21.43
2023-04-19T08:22:50.795Z,18.00
2023-04-19T08:25:53.866Z,18.40
2023-04-19T08:28:56.998Z,18.10
2023-04-19T08:32:00.303Z,18.00
2023-04-19T08:35:04.934Z,19.47
2023-04-19T08:38:08.010Z,20.73
2023-04-19T08:41:13.232Z,22.87
2023-04-19T08:44:32.741Z,25.33
2023-04-19T08:51:00.717Z,21.67
2023-04-19T08:54:08.759Z,23.83
2023-04-19T08:57:12.554Z,23.00
2023-04-19T09:00:16.464Z,24.20
2023-04-19T09:03:19.757Z,23.40
2023-04-19T09:06:24.623Z,22.60
2023-04-19T09:09:37.019Z,23.40
2023-04-19T09:12:42.735Z,23.00
2023-04-19T09:15:46.033Z,21.47
2023-04-19T09:19:08.184Z,22.53
2023-04-19T09:22:20.167Z,21.17
2023-04-19T09:28:33.137Z,20.50
2023-04-19T09:31:51.024Z,20.60
2023-04-19T09:34:56.740Z,20.00
2023-04-19T09:41:09.060Z,20.30
2023-04-19T09:47:25.425Z,20.17
2023-04-19T09:50:28.869Z,21.80
2023-04-19T09:53:35.027Z,20.80
2023-04-19T09:56:38.980Z,18.93
2023-04-19T09:59:42.111Z,20.23
2023-04-19T10:02:48.785Z,21.10
2023-04-19T10:05:53.336Z,19.33
2023-04-19T10:08:58.176Z,18.53
2023-04-19T10:12:11.690Z,19.43
2023-04-19T10:15:24.988Z,17.87
2023-04-19T10:18:28.435Z,18.57
2023-04-19T10:21:32.895Z,17.00
2023-04-19T10:24:37.343Z,17.63
2023-04-19T10:27:42.154Z,17.50
2023-04-19T10:30:55.902Z,16.13
2023-04-19T10:34:00.474Z,17.30
2023-04-19T10:37:05.752Z,16.67
2023-04-19T10:40:12.782Z,17.20
2023-04-19T10:43:19.313Z,16.27
2023-04-19T10:46:38.031Z,17.27
2023-04-19T10:49:46.476Z,16.17
2023-04-19T10:52:49.570Z,17.07
2023-04-19T10:55:54.033Z,17.57
2023-04-19T10:59:22.158Z,16.50
2023-04-19T11:02:29.496Z,16.43
2023-04-19T11:06:07.523Z,14.23
2023-04-19T11:09:11.242Z,15.57
2023-04-19T11:12:16.855Z,15.60
2023-04-19T11:15:23.319Z,14.63
2023-04-19T11:18:31.175Z,15.33
2023-04-19T11:21:34.364Z,15.10
2023-04-19T11:24:37.420Z,14.73
2023-04-19T11:27:43.028Z,15.60
2023-04-19T11:30:46.684Z,16.73
2023-04-19T11:33:49.817Z,15.63
2023-04-19T11:36:53.918Z,15.13
2023-04-19T11:39:56.966Z,15.47
2023-04-19T11:43:03.417Z,15.00
2023-04-19T11:46:07.576Z,16.83
2023-04-19T11:49:10.672Z,18.93
2023-04-19T11:52:13.745Z,20.00
2023-04-19T11:55:20.375Z,19.30
2023-04-19T11:58:29.610Z,19.30
2023-04-19T12:01:32.877Z,21.33
2023-04-19T12:04:36.288Z,17.40
2023-04-19T12:07:58.248Z,17.00
2023-04-19T12:11:03.208Z,17.13
2023-04-19T12:14:11.073Z,17.97
2023-04-19T12:17:15.992Z,17.20
2023-04-19T12:20:30.665Z,17.30
2023-04-19T12:23:33.699Z,16.83
2023-04-19T12:26:37.708Z,16.10
2023-04-19T12:29:42.216Z,16.50
2023-04-19T12:32:45.335Z,16.07
2023-04-19T12:35:48.586Z,15.80
2023-04-19T12:38:51.841Z,16.13
2023-04-19T12:41:54.932Z,14.90
2023-04-19T12:44:59.446Z,16.60
2023-04-19T12:48:02.632Z,15.93
2023-04-19T12:51:05.986Z,16.37
2023-04-19T12:54:09.102Z,16.00
2023-04-19T12:57:12.169Z,15.63
2023-04-19T13:00:17.502Z,15.50
2023-04-19T13:03:20.709Z,14.73
2023-04-19T13:06:23.796Z,15.17
2023-04-19T13:09:28.800Z,15.40
2023-04-19T13:12:31.829Z,15.00
2023-04-19T13:15:36.295Z,14.87
2023-04-19T13:18:39.338Z,14.47
2023-04-19T13:21:43.277Z,13.67
2023-04-19T13:24:46.297Z,14.30
2023-04-19T13:27:49.320Z,13.60
2023-04-19T13:30:53.788Z,13.90
2023-04-19T13:33:56.897Z,13.83
2023-04-19T13:36:59.985Z,13.07
2023-04-19T13:40:17.424Z,12.83
2023-04-19T13:43:22.494Z,13.47
2023-04-19T13:46:26.984Z,12.53
2023-04-19T13:49:30.183Z,12.97
2023-04-19T13:52:33.414Z,12.73
2023-04-19T13:55:36.646Z,12.10
2023-04-19T13:58:39.814Z,12.37
2023-04-19T14:01:44.340Z,12.07
2023-04-19T14:04:47.422Z,12.20
2023-04-19T14:07:50.499Z,12.20
2023-04-19T14:10:53.573Z,11.80
2023-04-19T14:13:57.750Z,11.47
2023-04-19T14:17:02.299Z,12.17
2023-04-19T14:20:07.520Z,12.37
2023-04-19T14:23:10.812Z,11.03
2023-04-19T14:26:13.828Z,11.10
2023-04-19T14:29:17.087Z,10.90
2023-04-19T14:32:26.493Z,11.00
2023-04-19T14:35:30.792Z,11.10
2023-04-19T14:38:34.167Z,10.73
2023-04-19T14:41:37.232Z,11.80
2023-04-19T14:44:40.449Z,10.53
2023-04-19T14:47:44.996Z,11.43
2023-04-19T14:50:48.029Z,10.43
2023-04-19T14:53:51.076Z,11.00
2023-04-19T14:56:54.182Z,10.87
2023-04-19T14:59:58.486Z,9.90
2023-04-19T15:03:03.147Z,5.97
2023-04-19T15:06:06.732Z,5.63
2023-04-19T15:09:09.860Z,4.50
2023-04-19T15:12:12.955Z,3.30
2023-04-19T15:15:16.024Z,3.17
2023-04-19T15:18:20.433Z,10.40
2023-04-19T15:21:24.783Z,9.83
2023-04-19T15:24:28.060Z,14.20
2023-04-19T15:27:31.436Z,12.80
2023-04-19T15:30:34.541Z,11.80
2023-04-19T15:33:38.992Z,11.20
2023-04-19T15:36:42.009Z,35.67
2023-04-19T15:39:45.020Z,38.10
2023-04-19T15:42:48.171Z,31.10
2023-04-19T15:45:51.534Z,24.93
2023-04-19T15:48:56.169Z,19.27
2023-04-19T15:51:59.179Z,13.60
2023-04-19T15:55:02.211Z,13.73
2023-04-19T15:58:06.424Z,11.70
2023-04-19T16:01:12.657Z,9.70
2023-04-19T16:04:17.355Z,7.40
2023-04-19T16:07:20.664Z,6.30
2023-04-19T16:10:23.865Z,6.47
2023-04-19T16:13:26.976Z,6.87
2023-04-19T16:16:33.133Z,5.90
2023-04-19T16:19:37.845Z,5.80
2023-04-19T16:22:41.251Z,5.60
2023-04-19T16:25:44.289Z,4.60
2023-04-19T16:28:47.865Z,4.97
2023-04-19T16:31:52.260Z,5.27
2023-04-19T16:34:56.872Z,3.80
2023-04-19T16:38:00.706Z,4.20
2023-04-19T16:41:05.695Z,3.93
2023-04-19T16:44:08.914Z,4.43
2023-04-19T16:47:12.181Z,4.40
2023-04-19T16:50:16.912Z,4.60
2023-04-19T16:53:19.961Z,4.00
2023-04-19T16:56:24.298Z,4.03
2023-04-19T16:59:27.331Z,5.00
2023-04-19T17:02:30.600Z,4.70
2023-04-19T17:05:35.187Z,5.10
2023-04-19T17:08:38.837Z,4.60
2023-04-19T17:11:41.810Z,4.57
2023-04-19T17:14:44.846Z,5.10
2023-04-19T17:17:48.009Z,5.07
2023-04-19T17:20:52.515Z,5.07
2023-04-19T17:23:55.562Z,5.47
2023-04-19T17:26:58.587Z,4.73
2023-04-19T17:30:01.690Z,5.23
2023-04-19T17:33:04.880Z,4.93
2023-04-19T17:36:10.170Z,5.53
2023-04-19T17:39:13.360Z,6.27
2023-04-19T17:42:16.428Z,10.30
2023-04-19T17:45:19.543Z,7.80
2023-04-19T17:48:22.580Z,7.93
2023-04-19T17:51:26.997Z,6.93
2023-04-19T17:54:30.110Z,7.00
2023-04-19T17:57:34.161Z,6.37
2023-04-19T18:00:37.210Z,7.23
2023-04-19T18:03:40.367Z,7.23
2023-04-19T18:06:44.927Z,6.73
2023-04-19T18:09:48.794Z,7.10
2023-04-19T18:12:51.817Z,6.90
2023-04-19T18:15:54.929Z,6.80
2023-04-19T18:18:58.090Z,7.40
2023-04-19T18:22:02.658Z,7.60
2023-04-19T18:25:06.317Z,7.30
2023-04-19T18:28:09.291Z,7.60
2023-04-19T18:31:12.369Z,8.17
2023-04-19T18:34:15.649Z,7.67
2023-04-19T18:37:20.089Z,7.20
2023-04-19T18:40:23.158Z,7.13
2023-04-19T18:43:28.258Z,6.73
2023-04-19T18:46:31.459Z,7.00
2023-04-19T18:49:34.713Z,7.93
2023-04-19T18:52:39.172Z,7.50
2023-04-19T18:55:42.233Z,7.70
2023-04-19T18:58:46.344Z,8.27
2023-04-19T19:01:50.909Z,8.40
2023-04-19T19:04:58.587Z,8.67
2023-04-19T19:08:06.857Z,7.77
2023-04-19T19:11:32.913Z,9.90
2023-04-19T19:14:35.772Z,7.70
2023-04-19T19:17:39.000Z,7.40
2023-04-19T19:20:42.123Z,7.37
2023-04-19T19:23:46.521Z,7.07
2023-04-19T19:26:50.027Z,6.30
2023-04-19T19:29:53.074Z,7.07
2023-04-19T19:32:56.131Z,6.07
2023-04-19T19:35:59.764Z,7.10
2023-04-19T19:39:04.420Z,6.50
2023-04-19T19:42:08.202Z,6.30
2023-04-19T19:45:12.483Z,7.00
2023-04-19T19:48:15.682Z,7.20
2023-04-19T19:51:41.784Z,7.40
2023-04-19T19:54:43.294Z,7.50
2023-04-19T20:00:52.884Z,8.60
2023-04-19T20:03:56.975Z,8.20
2023-04-19T20:10:10.061Z,9.93
2023-04-19T20:13:13.469Z,9.37
2023-04-19T20:16:18.822Z,9.10
2023-04-19T20:19:21.955Z,9.40
2023-04-19T20:22:25.055Z,9.07
2023-04-19T20:25:31.214Z,9.57
2023-04-19T20:28:35.177Z,9.63
2023-04-19T20:31:38.249Z,10.10
2023-04-19T20:34:41.299Z,10.13
2023-04-19T20:37:44.545Z,9.23
2023-04-19T20:40:49.026Z,9.37
2023-04-19T20:43:52.031Z,9.30
2023-04-19T20:46:56.275Z,9.40
2023-04-19T20:49:59.339Z,8.67
2023-04-19T20:53:02.354Z,9.60
2023-04-19T20:56:06.908Z,9.10
2023-04-19T20:59:10.285Z,8.93
2023-04-19T21:02:13.419Z,8.80
2023-04-19T21:05:16.558Z,8.90
2023-04-19T21:08:19.575Z,8.67
2023-04-19T21:11:24.135Z,9.20
2023-04-19T21:14:27.512Z,9.47
2023-04-19T21:17:30.643Z,9.97
2023-04-19T21:20:34.018Z,9.80
2023-04-19T21:23:38.689Z,11.67
2023-04-19T21:26:43.193Z,11.73
2023-04-19T21:29:46.213Z,11.87
2023-04-19T21:32:49.454Z,12.27
2023-04-19T21:35:52.606Z,12.23
2023-04-19T21:38:55.890Z,12.40
2023-04-19T21:42:00.419Z,12.77
2023-04-19T21:45:03.758Z,12.53
2023-04-19T21:48:07.416Z,12.23
2023-04-19T21:51:10.567Z,13.70
2023-04-19T21:54:23.178Z,13.73
2023-04-19T21:57:35.475Z,12.87
2023-04-19T22:00:39.557Z,12.00
2023-04-19T22:03:42.859Z,12.80
2023-04-19T22:06:46.815Z,13.00
2023-04-19T22:09:50.533Z,12.87
2023-04-19T22:13:02.792Z,12.43
2023-04-19T22:16:06.782Z,13.00
2023-04-19T22:19:11.224Z,12.30
2023-04-19T22:22:15.114Z,12.80
2023-04-19T22:25:19.008Z,12.00
2023-04-19T22:28:24.221Z,13.10
2023-04-19T22:31:27.961Z,12.13
2023-04-19T22:34:33.460Z,12.43
2023-04-19T22:37:37.056Z,11.87
2023-04-19T22:40:46.558Z,11.70
2023-04-19T22:43:59.446Z,10.97
2023-04-19T22:47:07.941Z,11.50
2023-04-19T22:50:13.834Z,10.90
2023-04-19T22:53:19.929Z,11.77
2023-04-19T22:56:26.059Z,10.50
2023-04-19T22:59:36.592Z,10.73
2023-04-19T23:02:43.100Z,10.20
2023-04-19T23:05:49.463Z,10.60
2023-04-19T23:08:52.983Z,10.20
2023-04-19T23:11:56.091Z,9.90
2023-04-19T23:15:00.635Z,10.13
2023-04-19T23:18:03.990Z,9.63
2023-04-19T23:21:07.757Z,10.00
2023-04-19T23:24:11.292Z,10.03
2023-04-19T23:27:14.438Z,9.70
2023-04-19T23:30:19.514Z,9.33
2023-04-19T23:33:22.686Z,9.20
2023-04-19T23:36:26.507Z,9.53
2023-04-19T23:39:29.734Z,9.20
2023-04-19T23:42:32.877Z,10.70
2023-04-19T23:45:37.413Z,10.60
2023-04-19T23:48:40.597Z,11.57
2023-04-19T23:51:43.738Z,11.10
2023-04-19T23:54:46.851Z,11.40
2023-04-19T23:57:50.054Z,11.20
